Ridgway, CO

8:12 AM MST on February 19, 2017 (GMT -0700)
MD6226 | | Change Station

Elev 6992 ft 38.15 °N, 107.76 °W | Updated 4 minutes ago

Overcast
Overcast
29.0 °F
Feels Like 29 °F
N
1.0
Wind Variable Wind from East

Today
High -- | Low -- °F
--% Chance of Precip.
Yesterday
High -- | Low -- °F
Precip. -- in
Pressure 29.71 in
Visibility 10.0 miles
Clouds Overcast 9000 ft
Windchill 29 °F
Dew Point 28 °F
Humidity 95%
Rainfall 0.00 in
Snow Depth Not available.
6:55 AM 5:54 PM
Last Quarter, 42% visible
METAR KMTJ 191453Z AUTO 09003KT 10SM OVC090 01/M01 A2976 RMK AO2 SLP059 T00111006 53001
Pressure 29.71 in
Visibility 10.0 miles
Clouds Overcast 9000 ft
Windchill 29 °F
Dew Point 28 °F
Humidity 95%
Rainfall 0.00 in
Snow Depth Not available.
6:55 AM 5:54 PM
Last Quarter, 42% visible
METAR KMTJ 191453Z AUTO 09003KT 10SM OVC090 01/M01 A2976 RMK AO2 SLP059 T00111006 53001

Get Your Daily Forecast Email!

Thanks for signing up!

Be on the lookout for a verification email in your inbox.

You'll start receiving the daily forecast at 8 AM.

×

10-Day Weather Forecast

Almanac

Astronomy

Feb. 19, 2017 Rise Set
Actual Time
Civil Twilight
Nautical Twilight
Astronomical Twilight
Moon
Length of Visible Light
Length of Day
Tomorrow will be .
, % of the Moon is Illuminated

Today's Extremes

State Highs State Lows

Community

WunderPhotos

Upload Photos

1,962,540 photos uploaded!

WunderBlog® & News

Nearby

Air Quality

  Air Quality AQ Index Pollutant
Not available.

Snow Depth

Station Depth Elevation

Earthquake Activity

City Distance Mag. Time & Date
Minimum magnitude displayed is 2.5.

Coastal Water Temperatures

Place Temperature

Stations

Nearby Weather Stations

Station Location Temp. Windchill Dew Point Humidity Wind Precip. Elev Updated Type
                   

Watches & Warnings

There are currently no watches in effect.